Pagina principale
METAR-TAF:

METAR-TAF

Aeroporti :

Aeroporto di Verona-Villafranca

Verona, Italia

latitudine: 45-23N, longitudine: 010-52E, altezza: 67 m

Osservazione

Il bollettino è stato emesso 25 minuti fa, alle 05:20 UTC
Vento 4 kt da ovest/sud-ovest
Temperature 4°C
Umidità 93%
Pressione 1006 hPa
Visibilità: 9000 m
Nuvoloso ad un'altezza di 3000 ft
pioggia debole

METAR: LIPX 200520Z 25004KT 9000 -RA BKN030 04/03 Q1006

Ora: 06:45 (05:45 UTC)

Previsione

Il bollettino è stato emesso 45 minuti fa, alle 05:00 UTC
Previsione valida dal 20 alle 06 UTC al 20 alle 15 UTC
Vento 5 kt da direzioni variabili
Visibilità: 8000 m
Nuvoloso ad un'altezza di 3500 ft
pioviggine
Evoluzione graduale
dal 20 alle 08 UTC al 20 alle 10 UTC

TAF: LIPX 200500Z 2006/2015 VRB05KT 8000 DZ BKN035 BECMG 2008/2010 NSW

Osservazioni e previsioni meteorologiche di più di 4000 aeroporti (messaggi METAR e TAF).

Le stazioni disponibili sono rappresentate dai dischi gialli e rossi sulla carta.

Puntare il mouse per vedere il nome della stazione.

Clicca sopra per visualizzare le osservazioni e previsioni meteorologiche.

Per cambiare la mappa : fare clic sui pulsanti verdi con una croce nera per ingrandire, il pulsante verde con un trattino per diminuire, o sulla freccia verde per le mappe adiacenti.


METAR-TAF: